Time;durP1;ratioP1;P1;durP2;ratioP2;P2;SDS_P1;SDS_P2;PMS_P1;PMS_P2;Temp;Humidity;BMP_temperature;BMP_pressure;BME280_temperature;BME280_humidity;BME280_pressure;Samples;Min_cycle;Max_cycle;Signal;HPM_P1;HPM_P2
2022/11/14 00:23:03;;;;;;;0.40;0.40;;;;;;;;;;6354063;22;20033;-91
2022/11/14 00:25:42;;;;;;;1.48;1.38;;;;;;;;;;6340508;22;20348;-92
2022/11/14 00:38:43;;;;;;;0.40;0.40;;;;;;;;;;6398912;22;20027;-91
2022/11/14 00:41:57;;;;;;;0.38;0.38;;;;;;;;;;6386102;22;20064;-90
2022/11/14 00:44:31;;;;;;;0.47;0.47;;;;;;;;;;6345503;22;20026;-91
2022/11/14 00:52:11;;;;;;;1.73;1.63;;;;;;;;;;6364879;22;20038;-89
2022/11/14 00:54:39;;;;;;;0.40;0.40;;;;;;;;;;6286853;22;20009;-89
2022/11/14 00:57:57;;;;;;;0.32;0.32;;;;;;;;;;6312259;22;20026;-89
2022/11/14 01:00:13;;;;;;;0.40;0.40;;;;;;;;;;6355331;22;20019;-90
2022/11/14 01:02:39;;;;;;;0.40;0.40;;;;;;;;;;6310439;22;20002;-89
2022/11/14 01:05:05;;;;;;;0.50;0.50;;;;;;;;;;6309640;22;20011;-90
2022/11/14 01:07:31;;;;;;;0.35;0.35;;;;;;;;;;6338572;22;19998;-90
2022/11/14 01:12:54;;;;;;;0.40;0.40;;;;;;;;;;6337806;22;20092;-88
2022/11/14 01:15:26;;;;;;;0.47;0.47;;;;;;;;;;6312701;22;20038;-89
2022/11/14 01:17:53;;;;;;;0.40;0.40;;;;;;;;;;6312160;22;20066;-89
2022/11/14 01:20:19;;;;;;;0.40;0.40;;;;;;;;;;6311408;22;20041;-88
2022/11/14 01:22:57;;;;;;;0.50;0.50;;;;;;;;;;6337564;22;20007;-88
2022/11/14 01:25:25;;;;;;;0.40;0.40;;;;;;;;;;6306334;22;20026;-89
2022/11/14 03:36:08;;;;;;;0.40;0.40;;;;;;;;;;6346526;22;20018;-91
2022/11/14 04:07:38;;;;;;;0.47;0.47;;;;;;;;;;6337249;22;20023;-92
2022/11/14 06:09:32;;;;;;;0.40;0.40;;;;;;;;;;6359609;22;20013;-91
2022/11/14 06:30:31;;;;;;;0.50;0.50;;;;;;;;;;6397297;22;20022;-90
2022/11/14 06:33:08;;;;;;;0.50;0.50;;;;;;;;;;6368588;22;20049;-89
2022/11/14 06:44:18;;;;;;;0.80;0.80;;;;;;;;;;6366915;22;20069;-90
2022/11/14 06:47:01;;;;;;;0.40;0.40;;;;;;;;;;6313333;22;20029;-89
2022/11/14 06:49:28;;;;;;;0.45;0.45;;;;;;;;;;6314817;22;20045;-90
2022/11/14 07:25:41;;;;;;;0.50;0.50;;;;;;;;;;6371499;22;20075;-89
2022/11/14 07:51:49;;;;;;;0.50;0.50;;;;;;;;;;6356862;22;20023;-93
2022/11/14 07:59:28;;;;;;;0.50;0.50;;;;;;;;;;6352217;22;20003;-92
2022/11/14 08:02:28;;;;;;;0.50;0.50;;;;;;;;;;6312500;22;20036;-93
2022/11/14 08:04:54;;;;;;;0.50;0.50;;;;;;;;;;6312041;22;20035;-92
2022/11/14 08:13:15;;;;;;;0.68;0.68;;;;;;;;;;6339825;22;20074;-91
2022/11/14 08:26:33;;;;;;;0.45;0.45;;;;;;;;;;6365540;22;20034;-94
2022/11/14 08:31:34;;;;;;;0.32;0.32;;;;;;;;;;6353717;22;20023;-88
2022/11/14 08:34:02;;;;;;;0.40;0.40;;;;;;;;;;6335616;22;20015;-89
2022/11/14 08:36:34;;;;;;;0.50;0.50;;;;;;;;;;6338222;22;20018;-89
2022/11/14 09:33:33;;;;;;;0.40;0.40;;;;;;;;;;6357236;22;20022;-93
2022/11/14 09:36:17;;;;;;;0.50;0.50;;;;;;;;;;6361936;22;20019;-92
2022/11/14 09:46:46;;;;;;;0.40;0.40;;;;;;;;;;6361275;22;20028;-89
2022/11/14 09:49:32;;;;;;;0.43;0.43;;;;;;;;;;6307202;22;20042;-89
2022/11/14 09:52:27;;;;;;;0.40;0.40;;;;;;;;;;6307568;22;20019;-89
2022/11/14 09:54:58;;;;;;;0.40;0.40;;;;;;;;;;6303728;22;20018;-88
2022/11/14 09:57:25;;;;;;;0.40;0.40;;;;;;;;;;6307439;22;20070;-87
2022/11/14 09:59:53;;;;;;;0.50;0.50;;;;;;;;;;6311282;22;20023;-90
2022/11/14 10:02:34;;;;;;;0.40;0.40;;;;;;;;;;6335193;22;20041;-88
2022/11/14 10:05:07;;;;;;;0.40;0.40;;;;;;;;;;6310749;22;20040;-89
2022/11/14 10:07:44;;;;;;;0.30;0.30;;;;;;;;;;6311457;22;20026;-89
2022/11/14 10:10:25;;;;;;;0.40;0.40;;;;;;;;;;6335857;22;20056;-88
2022/11/14 10:12:55;;;;;;;0.30;0.30;;;;;;;;;;6307214;22;20022;-87
2022/11/14 10:15:21;;;;;;;0.40;0.40;;;;;;;;;;6311925;22;20009;-87
2022/11/14 10:17:58;;;;;;;0.40;0.40;;;;;;;;;;6309002;22;20019;-87
2022/11/14 10:20:45;;;;;;;0.47;0.47;;;;;;;;;;6362527;22;20044;-87
2022/11/14 10:23:26;;;;;;;0.40;0.40;;;;;;;;;;6310818;22;20023;-88
2022/11/14 10:26:07;;;;;;;0.30;0.30;;;;;;;;;;6312587;22;20015;-89
2022/11/14 10:28:51;;;;;;;0.40;0.40;;;;;;;;;;6314255;22;20445;-89
2022/11/14 10:31:36;;;;;;;0.40;0.40;;;;;;;;;;6313938;22;20003;-88
2022/11/14 10:34:40;;;;;;;0.30;0.30;;;;;;;;;;6366523;22;20049;-91
2022/11/14 10:37:18;;;;;;;0.35;0.35;;;;;;;;;;6293800;22;20015;-88
2022/11/14 10:39:49;;;;;;;0.40;0.40;;;;;;;;;;6282886;22;19998;-87
2022/11/14 10:42:35;;;;;;;0.30;0.30;;;;;;;;;;6306832;22;20052;-86
2022/11/14 10:45:01;;;;;;;;;;;;;;;;;;6308676;22;20046;-87
2022/11/14 10:47:43;;;;;;;0.40;0.40;;;;;;;;;;6332704;22;19911;-88
2022/11/14 10:50:15;;;;;;;0.30;0.30;;;;;;;;;;6311700;22;20074;-89
2022/11/14 10:52:44;;;;;;;0.30;0.30;;;;;;;;;;6311454;22;20019;-88
2022/11/14 10:55:14;;;;;;;0.32;0.32;;;;;;;;;;6309539;22;20048;-86
2022/11/14 10:57:41;;;;;;;0.50;0.50;;;;;;;;;;6304507;22;20022;-86
2022/11/14 11:00:36;;;;;;;0.40;0.40;;;;;;;;;;6282161;22;20015;-85
2022/11/14 11:03:06;;;;;;;0.30;0.30;;;;;;;;;;6309086;22;20023;-92
2022/11/14 11:05:47;;;;;;;0.40;0.40;;;;;;;;;;6337136;22;20020;-95
2022/11/14 11:16:02;;;;;;;0.40;0.40;;;;;;;;;;6357836;22;20022;-91
2022/11/14 11:18:32;;;;;;;0.40;0.40;;;;;;;;;;6338366;22;20019;-91
2022/11/14 11:34:31;;;;;;;0.20;0.20;;;;;;;;;;6303274;22;19915;-91
2022/11/14 11:37:02;;;;;;;0.20;0.20;;;;;;;;;;6275767;22;20034;-94
2022/11/14 11:42:23;;;;;;;0.35;0.35;;;;;;;;;;6350612;22;20022;-93
2022/11/14 11:57:57;;;;;;;0.22;0.22;;;;;;;;;;6360830;22;19999;-93
2022/11/14 12:00:23;;;;;;;0.30;0.30;;;;;;;;;;6337505;22;20009;-92
2022/11/14 12:13:52;;;;;;;0.40;0.40;;;;;;;;;;6364103;22;20006;-92
2022/11/14 12:31:56;;;;;;;0.30;0.30;;;;;;;;;;6337172;22;20018;-91
2022/11/14 12:34:26;;;;;;;0.32;0.32;;;;;;;;;;6337745;22;20043;-91
2022/11/14 12:36:52;;;;;;;0.20;0.20;;;;;;;;;;6338493;22;20010;-89
2022/11/14 12:39:26;;;;;;;0.30;0.30;;;;;;;;;;6337211;22;20014;-91
2022/11/14 12:42:03;;;;;;;0.40;0.40;;;;;;;;;;6339357;22;20022;-93
2022/11/14 12:44:32;;;;;;;0.35;0.35;;;;;;;;;;6338579;22;20101;-92
2022/11/14 12:50:48;;;;;;;0.50;0.50;;;;;;;;;;6288123;22;20035;-91
2022/11/14 12:53:40;;;;;;;0.85;0.85;;;;;;;;;;6335718;22;20019;-89
2022/11/14 12:56:29;;;;;;;0.22;0.22;;;;;;;;;;6361655;22;20025;-88
2022/11/14 12:58:58;;;;;;;0.40;0.40;;;;;;;;;;6356606;22;20023;-86
2022/11/14 13:01:46;;;;;;;0.50;0.50;;;;;;;;;;6332130;22;20022;-87
2022/11/14 13:04:24;;;;;;;1.42;0.55;;;;;;;;;;6331575;22;20011;-86
2022/11/14 13:06:51;;;;;;;0.50;0.50;;;;;;;;;;6356565;22;20022;-88
2022/11/14 13:09:32;;;;;;;1.30;0.75;;;;;;;;;;6332304;22;20006;-88
2022/11/14 13:21:46;;;;;;;0.30;0.30;;;;;;;;;;6372261;22;20041;-88
2022/11/14 13:24:25;;;;;;;0.30;0.30;;;;;;;;;;6333250;22;20019;-88
2022/11/14 13:26:57;;;;;;;0.30;0.30;;;;;;;;;;6357199;22;20015;-87
2022/11/14 13:29:42;;;;;;;0.30;0.30;;;;;;;;;;6309037;22;20067;-89
2022/11/14 13:32:12;;;;;;;0.38;0.38;;;;;;;;;;6333709;22;20019;-87
2022/11/14 13:34:50;;;;;;;0.40;0.40;;;;;;;;;;6334482;22;20095;-90
2022/11/14 13:37:58;;;;;;;0.28;0.28;;;;;;;;;;6333728;22;20018;-89
2022/11/14 13:40:34;;;;;;;0.40;0.40;;;;;;;;;;6335108;22;20015;-90
2022/11/14 13:43:18;;;;;;;0.30;0.30;;;;;;;;;;6337086;22;20030;-92
2022/11/14 13:45:54;;;;;;;0.40;0.40;;;;;;;;;;6339593;22;20019;-91
2022/11/14 13:48:37;;;;;;;0.30;0.30;;;;;;;;;;6362418;22;20018;-89
2022/11/14 13:51:34;;;;;;;0.38;0.38;;;;;;;;;;6311165;22;19999;-89
2022/11/14 14:01:04;;;;;;;0.30;0.30;;;;;;;;;;6375767;22;19995;-91
2022/11/14 14:07:05;;;;;;;0.40;0.40;;;;;;;;;;6375590;22;20022;-91
2022/11/14 14:09:51;;;;;;;0.40;0.40;;;;;;;;;;6365902;22;20015;-90
2022/11/14 14:18:17;;;;;;;0.30;0.30;;;;;;;;;;6359190;22;20026;-89
2022/11/14 14:21:01;;;;;;;0.35;0.35;;;;;;;;;;6361691;22;20033;-89
2022/11/14 14:23:39;;;;;;;;;;;;;;;;;;6337373;22;19998;-90
2022/11/14 14:26:19;;;;;;;0.30;0.30;;;;;;;;;;6338380;22;19898;-90
2022/11/14 14:29:14;;;;;;;0.40;0.40;;;;;;;;;;6336934;22;20014;-91
2022/11/14 14:31:50;;;;;;;0.40;0.40;;;;;;;;;;6364920;22;20025;-89
2022/11/14 14:37:32;;;;;;;0.30;0.30;;;;;;;;;;6362737;22;20083;-87
2022/11/14 21:54:37;;;;;;;0.40;0.40;;;;;;;;;;6334351;22;19906;-94
2022/11/14 22:12:42;;;;;;;0.30;0.30;;;;;;;;;;6342616;22;20007;-94
2022/11/14 22:15:23;;;;;;;0.30;0.30;;;;;;;;;;6340603;22;20045;-93
2022/11/14 22:17:51;;;;;;;0.30;0.30;;;;;;;;;;6339766;22;19999;-94
2022/11/14 22:20:38;;;;;;;0.40;0.40;;;;;;;;;;6313720;22;20026;-95
2022/11/14 22:23:22;;;;;;;0.40;0.40;;;;;;;;;;6315545;22;20050;-94
2022/11/14 22:47:10;;;;;;;0.20;0.20;;;;;;;;;;6365985;22;20023;-94
